sensor_id;sensor_type;location;lat;lon;timestamp;P1;durP1;ratioP1;P2;durP2;ratioP2
45314;SDS011;31051;51.540;5.852;2023-06-10T00:10:25;5.8;;;5.2;;
45314;SDS011;31051;51.540;5.852;2023-06-10T00:23:13;5.9;;;5.2;;
45314;SDS011;31051;51.540;5.852;2023-06-10T00:36:02;6.2;;;5.6;;
45314;SDS011;31051;51.540;5.852;2023-06-10T00:49:01;6.5;;;5.9;;
45314;SDS011;31051;51.540;5.852;2023-06-10T01:01:50;6.8;;;6.1;;
45314;SDS011;31051;51.540;5.852;2023-06-10T01:14:50;6.9;;;6.3;;
45314;SDS011;31051;51.540;5.852;2023-06-10T01:27:48;7.5;;;6.6;;
45314;SDS011;31051;51.540;5.852;2023-06-10T01:40:37;8.1;;;7.2;;
45314;SDS011;31051;51.540;5.852;2023-06-10T01:53:37;8.6;;;7.9;;
45314;SDS011;31051;51.540;5.852;2023-06-10T02:06:36;9.8;;;8.4;;
45314;SDS011;31051;51.540;5.852;2023-06-10T02:19:36;9.2;;;8.4;;
45314;SDS011;31051;51.540;5.852;2023-06-10T02:32:35;9.6;;;8.7;;
45314;SDS011;31051;51.540;5.852;2023-06-10T02:45:34;9.4;;;8.5;;
45314;SDS011;31051;51.540;5.852;2023-06-10T02:58:34;9.1;;;8.2;;
45314;SDS011;31051;51.540;5.852;2023-06-10T03:11:33;9.7;;;8.8;;
45314;SDS011;31051;51.540;5.852;2023-06-10T03:24:32;11.0;;;9.4;;
45314;SDS011;31051;51.540;5.852;2023-06-10T03:37:20;10.7;;;9.4;;
45314;SDS011;31051;51.540;5.852;2023-06-10T03:50:09;11.5;;;10.2;;
45314;SDS011;31051;51.540;5.852;2023-06-10T04:03:09;12.2;;;10.6;;
45314;SDS011;31051;51.540;5.852;2023-06-10T04:16:08;14.0;;;10.9;;
45314;SDS011;31051;51.540;5.852;2023-06-10T04:29:07;25.8;;;11.5;;
45314;SDS011;31051;51.540;5.852;2023-06-10T04:42:07;27.9;;;11.1;;
45314;SDS011;31051;51.540;5.852;2023-06-10T04:55:06;19.5;;;9.5;;
45314;SDS011;31051;51.540;5.852;2023-06-10T05:08:06;17.2;;;8.6;;
45314;SDS011;31051;51.540;5.852;2023-06-10T05:21:04;15.7;;;8.3;;
45314;SDS011;31051;51.540;5.852;2023-06-10T05:33:53;16.8;;;8.2;;
45314;SDS011;31051;51.540;5.852;2023-06-10T05:46:53;12.5;;;7.4;;
45314;SDS011;31051;51.540;5.852;2023-06-10T05:59:51;10.7;;;6.7;;
45314;SDS011;31051;51.540;5.852;2023-06-10T06:12:40;12.8;;;7.0;;
45314;SDS011;31051;51.540;5.852;2023-06-10T06:25:29;12.5;;;7.0;;
45314;SDS011;31051;51.540;5.852;2023-06-10T06:38:27;15.3;;;6.7;;
45314;SDS011;31051;51.540;5.852;2023-06-10T06:51:16;13.5;;;6.4;;
45314;SDS011;31051;51.540;5.852;2023-06-10T07:04:13;7.1;;;5.1;;
45314;SDS011;31051;51.540;5.852;2023-06-10T07:17:01;7.4;;;5.2;;
45314;SDS011;31051;51.540;5.852;2023-06-10T07:42:36;5.8;;;4.6;;
45314;SDS011;31051;51.540;5.852;2023-06-10T07:55:23;10.1;;;4.8;;
45314;SDS011;31051;51.540;5.852;2023-06-10T08:08:11;9.5;;;4.4;;
45314;SDS011;31051;51.540;5.852;2023-06-10T08:20:58;6.5;;;4.3;;
45314;SDS011;31051;51.540;5.852;2023-06-10T08:33:46;12.7;;;4.6;;
45314;SDS011;31051;51.540;5.852;2023-06-10T08:46:33;12.0;;;4.9;;
45314;SDS011;31051;51.540;5.852;2023-06-10T08:59:21;19.2;;;5.3;;
45314;SDS011;31051;51.540;5.852;2023-06-10T09:12:08;13.2;;;5.2;;
45314;SDS011;31051;51.540;5.852;2023-06-10T09:24:56;10.2;;;4.7;;
45314;SDS011;31051;51.540;5.852;2023-06-10T09:37:43;14.2;;;5.0;;
45314;SDS011;31051;51.540;5.852;2023-06-10T09:50:31;6.0;;;4.4;;
45314;SDS011;31051;51.540;5.852;2023-06-10T10:03:18;9.0;;;4.5;;
45314;SDS011;31051;51.540;5.852;2023-06-10T10:16:06;9.3;;;4.5;;
45314;SDS011;31051;51.540;5.852;2023-06-10T10:28:53;14.5;;;5.1;;
45314;SDS011;31051;51.540;5.852;2023-06-10T10:41:41;7.4;;;4.3;;
45314;SDS011;31051;51.540;5.852;2023-06-10T10:54:28;5.8;;;4.1;;
45314;SDS011;31051;51.540;5.852;2023-06-10T11:07:16;16.6;;;4.8;;
45314;SDS011;31051;51.540;5.852;2023-06-10T11:20:03;8.1;;;4.1;;
45314;SDS011;31051;51.540;5.852;2023-06-10T11:32:51;5.6;;;4.0;;
45314;SDS011;31051;51.540;5.852;2023-06-10T11:45:38;7.6;;;4.0;;
45314;SDS011;31051;51.540;5.852;2023-06-10T11:58:26;6.6;;;3.9;;
45314;SDS011;31051;51.540;5.852;2023-06-10T12:11:14;15.8;;;4.7;;
45314;SDS011;31051;51.540;5.852;2023-06-10T12:24:01;9.4;;;4.3;;
45314;SDS011;31051;51.540;5.852;2023-06-10T12:36:49;5.3;;;4.0;;
45314;SDS011;31051;51.540;5.852;2023-06-10T12:49:36;8.4;;;4.2;;
45314;SDS011;31051;51.540;5.852;2023-06-10T13:02:24;10.3;;;4.1;;
45314;SDS011;31051;51.540;5.852;2023-06-10T13:15:12;6.7;;;3.8;;
45314;SDS011;31051;51.540;5.852;2023-06-10T13:27:59;5.9;;;3.7;;
45314;SDS011;31051;51.540;5.852;2023-06-10T13:40:47;6.3;;;3.8;;
45314;SDS011;31051;51.540;5.852;2023-06-10T13:53:34;7.8;;;4.0;;
45314;SDS011;31051;51.540;5.852;2023-06-10T14:06:22;12.2;;;4.5;;
45314;SDS011;31051;51.540;5.852;2023-06-10T14:19:09;9.7;;;4.2;;
45314;SDS011;31051;51.540;5.852;2023-06-10T14:31:57;6.9;;;3.9;;
45314;SDS011;31051;51.540;5.852;2023-06-10T14:44:45;13.3;;;4.5;;
45314;SDS011;31051;51.540;5.852;2023-06-10T14:57:32;6.2;;;3.9;;
45314;SDS011;31051;51.540;5.852;2023-06-10T15:10:20;6.1;;;4.0;;
45314;SDS011;31051;51.540;5.852;2023-06-10T15:23:07;8.6;;;4.0;;
45314;SDS011;31051;51.540;5.852;2023-06-10T15:35:55;5.2;;;3.8;;
45314;SDS011;31051;51.540;5.852;2023-06-10T15:48:42;14.0;;;4.5;;
45314;SDS011;31051;51.540;5.852;2023-06-10T16:01:30;5.4;;;4.1;;
45314;SDS011;31051;51.540;5.852;2023-06-10T16:14:17;10.4;;;4.9;;
45314;SDS011;31051;51.540;5.852;2023-06-10T16:27:05;13.1;;;4.6;;
45314;SDS011;31051;51.540;5.852;2023-06-10T16:39:53;8.4;;;4.3;;
45314;SDS011;31051;51.540;5.852;2023-06-10T16:52:40;8.7;;;4.4;;
45314;SDS011;31051;51.540;5.852;2023-06-10T17:05:28;5.8;;;4.0;;
45314;SDS011;31051;51.540;5.852;2023-06-10T17:18:15;6.6;;;4.3;;
45314;SDS011;31051;51.540;5.852;2023-06-10T17:31:03;8.4;;;4.2;;
45314;SDS011;31051;51.540;5.852;2023-06-10T17:43:50;11.3;;;4.6;;
45314;SDS011;31051;51.540;5.852;2023-06-10T17:56:38;6.1;;;4.2;;
45314;SDS011;31051;51.540;5.852;2023-06-10T18:09:25;13.6;;;4.6;;
45314;SDS011;31051;51.540;5.852;2023-06-10T18:22:13;11.5;;;4.7;;
45314;SDS011;31051;51.540;5.852;2023-06-10T18:35:00;7.3;;;4.1;;
45314;SDS011;31051;51.540;5.852;2023-06-10T18:47:48;6.2;;;4.3;;
45314;SDS011;31051;51.540;5.852;2023-06-10T19:00:35;7.0;;;4.3;;
45314;SDS011;31051;51.540;5.852;2023-06-10T19:13:23;6.0;;;4.3;;
45314;SDS011;31051;51.540;5.852;2023-06-10T19:26:10;5.2;;;4.4;;
45314;SDS011;31051;51.540;5.852;2023-06-10T19:38:58;6.4;;;4.7;;
45314;SDS011;31051;51.540;5.852;2023-06-10T19:51:45;9.7;;;5.0;;
45314;SDS011;31051;51.540;5.852;2023-06-10T20:04:33;7.3;;;4.9;;
45314;SDS011;31051;51.540;5.852;2023-06-10T20:17:20;6.2;;;4.6;;
45314;SDS011;31051;51.540;5.852;2023-06-10T20:30:07;5.2;;;4.4;;
45314;SDS011;31051;51.540;5.852;2023-06-10T20:42:55;6.1;;;4.8;;
45314;SDS011;31051;51.540;5.852;2023-06-10T20:55:42;8.4;;;5.2;;
45314;SDS011;31051;51.540;5.852;2023-06-10T21:08:30;6.2;;;4.8;;
45314;SDS011;31051;51.540;5.852;2023-06-10T21:21:18;6.2;;;5.1;;
45314;SDS011;31051;51.540;5.852;2023-06-10T21:34:17;6.7;;;5.5;;
45314;SDS011;31051;51.540;5.852;2023-06-10T21:47:15;6.1;;;5.5;;
45314;SDS011;31051;51.540;5.852;2023-06-10T22:00:14;7.7;;;6.0;;
45314;SDS011;31051;51.540;5.852;2023-06-10T22:13:02;7.3;;;5.7;;
45314;SDS011;31051;51.540;5.852;2023-06-10T22:38:39;7.5;;;6.1;;
45314;SDS011;31051;51.540;5.852;2023-06-10T22:51:37;6.1;;;5.5;;
45314;SDS011;31051;51.540;5.852;2023-06-10T23:04:26;6.8;;;5.7;;
45314;SDS011;31051;51.540;5.852;2023-06-10T23:17:14;7.2;;;6.0;;
45314;SDS011;31051;51.540;5.852;2023-06-10T23:30:02;6.7;;;6.1;;
45314;SDS011;31051;51.540;5.852;2023-06-10T23:42:52;8.3;;;6.6;;
45314;SDS011;31051;51.540;5.852;2023-06-10T23:55:50;7.4;;;6.5;;
